createdAt,value
2018-07-10T00:08:37.694Z,15.88
2018-07-10T00:28:30.176Z,15.86
2018-07-10T01:18:41.324Z,15.67
2018-07-10T01:28:46.883Z,15.48
2018-07-10T01:38:32.221Z,15.39
2018-07-10T01:58:48.179Z,15.05
2018-07-10T02:08:30.235Z,15.03
2018-07-10T02:18:44.426Z,15.06
2018-07-10T02:28:36.349Z,14.93
2018-07-10T02:38:42.997Z,14.56
2018-07-10T02:58:33.829Z,14.31
2018-07-10T03:08:37.156Z,14.37
2018-07-10T03:18:49.502Z,14.32
2018-07-10T03:28:31.175Z,14.39
2018-07-10T03:38:47.523Z,14.42
2018-07-10T03:48:31.170Z,14.35
2018-07-10T03:58:47.598Z,14.57
2018-07-10T04:08:48.108Z,14.8
2018-07-10T04:18:41.678Z,14.84
2018-07-10T04:28:33.942Z,15.08
2018-07-10T04:38:38.121Z,15.01
2018-07-10T04:48:31.323Z,14.94
2018-07-10T04:58:38.536Z,15.09
2018-07-10T05:08:33.943Z,15.11
2018-07-10T05:18:40.449Z,15.41
2018-07-10T05:28:31.318Z,15.54
2018-07-10T05:38:38.406Z,15.64
2018-07-10T05:48:39.494Z,15.63
2018-07-10T05:58:30.335Z,15.68
2018-07-10T06:08:34.040Z,15.75
2018-07-10T06:24:59.130Z,16
2018-07-10T06:28:30.243Z,16.04
2018-07-10T06:38:34.087Z,15.99
2018-07-10T06:48:30.306Z,15.94
2018-07-10T06:58:30.359Z,16.2
2018-07-10T07:08:30.290Z,16.09
2018-07-10T07:18:32.311Z,15.93
2018-07-10T07:29:03.424Z,15.56
2018-07-10T07:38:30.779Z,15.48
2018-07-10T07:48:30.517Z,15.3
2018-07-10T07:58:30.554Z,15.17
2018-07-10T08:08:30.353Z,15.01
2018-07-10T08:18:30.583Z,14.99
2018-07-10T08:28:30.495Z,15.13
2018-07-10T08:38:30.384Z,15.15
2018-07-10T08:48:31.233Z,15.13
2018-07-10T08:58:30.403Z,15.05
2018-07-10T09:08:30.645Z,15.51
2018-07-10T09:18:30.497Z,15.81
2018-07-10T09:28:30.424Z,15.97
2018-07-10T09:38:30.448Z,15.96
2018-07-10T09:48:30.490Z,15.67
2018-07-10T09:58:30.448Z,15.42
2018-07-10T10:08:30.592Z,15.54
2018-07-10T10:18:30.503Z,15.81
2018-07-10T10:28:30.499Z,15.75
2018-07-10T10:38:30.522Z,15.86
2018-07-10T10:48:30.531Z,16
2018-07-10T10:58:30.541Z,16.41
2018-07-10T11:08:30.544Z,17.35
2018-07-10T11:18:30.529Z,18.62
2018-07-10T11:28:30.512Z,19.01
2018-07-10T11:38:30.536Z,19.4
2018-07-10T11:48:30.562Z,19.72
2018-07-10T11:58:30.524Z,19.21
2018-07-10T12:08:30.569Z,20.24
2018-07-10T12:18:30.556Z,20.83
2018-07-10T12:28:30.589Z,20.69
2018-07-10T12:38:30.566Z,20.76
2018-07-10T12:48:30.562Z,20.72
2018-07-10T12:58:30.557Z,20.98
2018-07-10T13:08:30.537Z,21.14
2018-07-10T13:18:30.567Z,21.76
2018-07-10T13:28:31.368Z,20.86
2018-07-10T13:38:30.585Z,20.16
2018-07-10T13:48:30.594Z,19.98
2018-07-10T13:58:30.558Z,17.92
2018-07-10T14:08:30.547Z,17.29
2018-07-10T14:18:30.562Z,18.06
2018-07-10T14:28:30.781Z,18.22
2018-07-10T14:38:30.657Z,19.36
2018-07-10T14:48:30.571Z,19.78
2018-07-10T14:58:30.566Z,19.88
2018-07-10T15:08:30.605Z,19.8
2018-07-10T15:28:30.584Z,20.61
2018-07-10T15:38:30.669Z,20.77
2018-07-10T15:58:30.566Z,20.86
2018-07-10T16:08:30.607Z,21.14
2018-07-10T16:18:30.572Z,20.87
2018-07-10T16:28:30.574Z,20.53
2018-07-10T16:38:30.547Z,20.28
2018-07-10T16:59:19.617Z,20.09
2018-07-10T17:00:00.217Z,20.2
2018-07-10T17:10:00.122Z,19.8
2018-07-10T17:30:00.116Z,19.31
2018-07-10T17:40:00.059Z,19.08
2018-07-10T17:50:00.152Z,18.97
2018-07-10T18:00:00.175Z,18.79
2018-07-10T18:10:12.754Z,18.86
2018-07-10T18:20:02.442Z,18.67
2018-07-10T18:30:00.143Z,18.46
2018-07-10T18:40:00.205Z,18.17
2018-07-10T18:50:00.218Z,17.95
2018-07-10T19:00:00.739Z,17.48
2018-07-10T19:10:00.199Z,17.14
2018-07-10T19:20:00.161Z,17
2018-07-10T19:30:01.514Z,16.92
2018-07-10T19:40:00.182Z,16.58
2018-07-10T19:50:00.260Z,16.22
2018-07-10T20:00:00.173Z,16.27
2018-07-10T20:10:00.238Z,16.26
2018-07-10T20:20:00.215Z,16.06
2018-07-10T20:30:00.154Z,15.76
2018-07-10T20:40:00.273Z,15.46
2018-07-10T20:50:00.275Z,15.39
2018-07-10T21:00:00.378Z,15.08
2018-07-10T21:10:00.288Z,14.91
2018-07-10T21:20:00.303Z,14.87
2018-07-10T21:30:00.423Z,14.61
2018-07-10T21:40:00.282Z,14.42
2018-07-10T21:50:00.347Z,14.04
2018-07-10T22:00:00.382Z,14.01
2018-07-10T22:10:00.318Z,14.06
2018-07-10T22:20:00.431Z,13.87
2018-07-10T22:30:00.371Z,13.95
2018-07-10T22:40:00.412Z,13.81
2018-07-10T22:50:00.293Z,13.89
2018-07-10T23:00:00.402Z,13.8
2018-07-10T23:10:00.355Z,13.74
2018-07-10T23:20:00.468Z,13.67
2018-07-10T23:30:00.368Z,13.37
2018-07-10T23:40:00.332Z,13.2
2018-07-10T23:50:00.412Z,13.15
